Terminal Aerodrome Forecast
Issued by NWS

Home | Current Version | Previous Version | Graphics & Text | Print | Product List | Glossary On
Versions: 1 2 3 4 5 6 7 8 9 10 11 12 13 14 15
951
FTUS43 KTOP 221729
TAFMHK
TAF
KMHK 221729Z 2218/2318 26009KT P6SM SCT200
     FM222200 31009KT P6SM FEW250
     FM230700 07008KT P6SM BKN250
     FM231400 08011G21KT P6SM VCSH OVC100=

USA.gov is the U.S. government's official web portal to all federal, state and local government web resources and services.